createdAt,value
2023-01-10T00:00:48.096Z,98460.88
2023-01-10T00:02:21.279Z,98463.41
2023-01-10T00:03:54.629Z,98465.09
2023-01-10T00:05:27.722Z,98461.53
2023-01-10T00:07:01.184Z,98466.00
2023-01-10T00:08:33.360Z,98482.44
2023-01-10T00:10:07.186Z,98480.66
2023-01-10T00:11:57.501Z,98484.25
2023-01-10T00:13:29.905Z,98478.78
2023-01-10T00:15:04.524Z,98473.56
2023-01-10T00:16:39.635Z,98467.53
2023-01-10T00:18:13.194Z,98483.06
2023-01-10T00:19:46.356Z,98482.25
2023-01-10T00:21:19.737Z,98479.56
2023-01-10T00:22:52.936Z,98482.19
2023-01-10T00:24:26.074Z,98487.25
2023-01-10T00:25:59.171Z,98469.75
2023-01-10T00:27:31.464Z,98465.31
2023-01-10T00:29:07.175Z,98469.72
2023-01-10T00:30:42.980Z,98475.81
2023-01-10T00:32:16.117Z,98472.44
2023-01-10T00:33:49.308Z,98465.41
2023-01-10T00:35:22.613Z,98468.84
2023-01-10T00:36:55.703Z,98463.69
2023-01-10T00:38:30.500Z,98480.19
2023-01-10T00:40:04.038Z,98469.72
2023-01-10T00:42:03.265Z,98467.13
2023-01-10T00:43:53.778Z,98469.91
2023-01-10T00:45:27.651Z,98473.44
2023-01-10T00:47:02.223Z,98477.00
2023-01-10T00:48:35.389Z,98480.53
2023-01-10T00:50:10.424Z,98486.63
2023-01-10T00:51:42.676Z,98484.03
2023-01-10T00:53:16.255Z,98472.81
2023-01-10T00:54:49.639Z,98476.19
2023-01-10T00:56:22.804Z,98476.13
2023-01-10T00:57:56.141Z,98479.63
2023-01-10T00:59:29.481Z,98465.66
2023-01-10T01:01:03.006Z,98464.91
2023-01-10T01:02:37.749Z,98487.75
2023-01-10T01:04:11.073Z,98487.94
2023-01-10T01:05:44.741Z,98483.41
2023-01-10T01:07:18.489Z,98473.78
2023-01-10T01:08:51.603Z,98471.94
2023-01-10T01:10:26.440Z,98464.06
2023-01-10T01:11:59.782Z,98468.34
2023-01-10T01:13:33.231Z,98475.31
2023-01-10T01:15:07.384Z,98469.19
2023-01-10T01:16:40.555Z,98457.78
2023-01-10T01:18:16.484Z,98462.09
2023-01-10T01:19:50.015Z,98457.75
2023-01-10T01:21:28.066Z,98442.13
2023-01-10T01:23:01.604Z,98453.38
2023-01-10T01:24:34.721Z,98464.63
2023-01-10T01:26:07.977Z,98457.63
2023-01-10T01:27:41.151Z,98441.06
2023-01-10T01:29:14.755Z,98435.97
2023-01-10T01:30:48.286Z,98434.38
2023-01-10T01:32:22.133Z,98433.56
2023-01-10T01:33:56.758Z,98430.16
2023-01-10T01:35:29.998Z,98438.91
2023-01-10T01:37:03.166Z,98428.53
2023-01-10T01:38:35.448Z,98438.97
2023-01-10T01:40:11.131Z,98418.94
2023-01-10T01:42:01.124Z,98413.75
2023-01-10T01:43:59.953Z,98404.31
2023-01-10T01:45:41.124Z,98410.47
2023-01-10T01:47:19.816Z,98414.72
2023-01-10T01:48:53.091Z,98419.03
2023-01-10T01:50:33.168Z,98436.66
2023-01-10T01:52:11.541Z,98423.34
2023-01-10T01:53:49.820Z,98414.66
2023-01-10T01:55:22.832Z,98413.75
2023-01-10T01:57:00.734Z,98411.19
2023-01-10T01:58:40.851Z,98403.34
2023-01-10T02:00:15.666Z,98395.41
2023-01-10T02:01:52.919Z,98392.75
2023-01-10T02:03:26.635Z,98393.56
2023-01-10T02:05:03.864Z,98411.97
2023-01-10T02:06:39.271Z,98414.66
2023-01-10T02:08:12.638Z,98405.91
2023-01-10T02:09:51.250Z,98410.28
2023-01-10T02:11:24.328Z,98406.78
2023-01-10T02:13:02.602Z,98402.31
2023-01-10T02:14:37.498Z,98395.31
2023-01-10T02:16:10.927Z,98396.97
2023-01-10T02:17:44.150Z,98392.59
2023-01-10T02:19:25.928Z,98396.03
2023-01-10T02:21:21.672Z,98402.13
2023-01-10T02:23:24.469Z,98403.81
2023-01-10T02:25:38.254Z,98399.38
2023-01-10T02:27:24.867Z,98389.78
2023-01-10T02:29:32.252Z,98380.91
2023-01-10T02:31:31.025Z,98378.34
2023-01-10T02:33:13.067Z,98373.09
2023-01-10T02:35:00.570Z,98362.78
2023-01-10T02:36:43.902Z,98366.28
2023-01-10T02:38:29.906Z,98356.91
2023-01-10T02:40:09.108Z,98368.94
2023-01-10T02:41:51.672Z,98367.06
2023-01-10T02:43:30.387Z,98358.28
2023-01-10T02:45:08.584Z,98352.09
2023-01-10T02:46:42.601Z,98342.59
2023-01-10T02:48:17.268Z,98333.75
2023-01-10T02:49:52.020Z,98337.25
2023-01-10T02:51:28.382Z,98331.34
2023-01-10T02:53:05.390Z,98333.97
2023-01-10T02:54:39.191Z,98339.13
2023-01-10T02:56:57.365Z,98351.31
2023-01-10T02:58:43.219Z,98354.75
2023-01-10T03:00:42.252Z,98352.19
2023-01-10T03:02:26.393Z,98353.03
2023-01-10T03:04:12.663Z,98339.84
2023-01-10T03:05:59.499Z,98334.59
2023-01-10T03:07:39.391Z,98333.75
2023-01-10T03:09:22.005Z,98327.06
2023-01-10T03:10:59.077Z,98329.69
2023-01-10T03:12:38.894Z,98321.91
2023-01-10T03:14:18.336Z,98321.81
2023-01-10T03:15:53.861Z,98304.38
2023-01-10T03:17:29.806Z,98299.28
2023-01-10T03:19:08.688Z,98321.97
2023-01-10T03:20:46.262Z,98309.81
2023-01-10T03:22:19.678Z,98301.94
2023-01-10T03:23:55.850Z,98303.66
2023-01-10T03:25:34.253Z,98302.78
2023-01-10T03:27:12.350Z,98294.94
2023-01-10T03:28:51.103Z,98297.72
2023-01-10T03:30:29.731Z,98296.06
2023-01-10T03:32:07.314Z,98296.00
2023-01-10T03:33:41.424Z,98291.56
2023-01-10T03:35:17.325Z,98294.25
2023-01-10T03:36:56.738Z,98292.69
2023-01-10T03:38:37.294Z,98296.28
2023-01-10T03:40:18.311Z,98306.97
2023-01-10T03:42:00.437Z,98298.41
2023-01-10T03:43:59.769Z,98313.16
2023-01-10T03:45:40.942Z,98305.56
2023-01-10T03:47:23.628Z,98306.34
2023-01-10T03:48:59.272Z,98302.84
2023-01-10T03:50:35.256Z,98296.78
2023-01-10T03:52:12.603Z,98295.03
2023-01-10T03:53:46.204Z,98289.88
2023-01-10T03:55:22.277Z,98290.03
2023-01-10T03:56:55.654Z,98287.44
2023-01-10T03:58:30.545Z,98279.59
2023-01-10T04:00:04.483Z,98276.22
2023-01-10T04:01:37.691Z,98285.25
2023-01-10T04:03:11.191Z,98275.19
2023-01-10T04:04:44.749Z,98286.53
2023-01-10T04:06:20.258Z,98289.03
2023-01-10T04:07:53.571Z,98281.09
2023-01-10T04:09:26.777Z,98275.19
2023-01-10T04:11:01.882Z,98283.69
2023-01-10T04:12:35.341Z,98287.97
2023-01-10T04:14:07.552Z,98290.53
2023-01-10T04:15:43.990Z,98299.34
2023-01-10T04:17:18.701Z,98313.25
2023-01-10T04:18:51.923Z,98308.81
2023-01-10T04:20:26.949Z,98306.22
2023-01-10T04:22:02.111Z,98299.22
2023-01-10T04:23:35.473Z,98309.66
2023-01-10T04:25:12.289Z,98310.63
2023-01-10T04:26:45.589Z,98299.28
2023-01-10T04:28:19.176Z,98294.91
2023-01-10T04:29:54.953Z,98288.97
2023-01-10T04:31:29.262Z,98287.31
2023-01-10T04:33:02.394Z,98276.81
2023-01-10T04:34:35.843Z,98276.75
2023-01-10T04:36:09.476Z,98286.22
2023-01-10T04:37:44.773Z,98286.31
2023-01-10T04:39:18.385Z,98287.25
2023-01-10T04:40:54.541Z,98280.34
2023-01-10T04:42:26.695Z,98289.88
2023-01-10T04:44:02.332Z,98296.00
2023-01-10T04:45:35.557Z,98305.66
2023-01-10T04:47:09.127Z,98305.63
2023-01-10T04:48:42.498Z,98305.63
2023-01-10T04:50:15.797Z,98296.06
2023-01-10T04:51:49.065Z,98286.56
2023-01-10T04:53:24.435Z,98289.13
2023-01-10T04:54:57.599Z,98278.69
2023-01-10T04:56:30.901Z,98271.78
2023-01-10T04:58:04.719Z,98260.63
2023-01-10T04:59:38.180Z,98261.69
2023-01-10T05:01:12.508Z,98263.63
2023-01-10T05:02:45.861Z,98262.84
2023-01-10T05:04:20.887Z,98275.94
2023-01-10T05:05:54.291Z,98257.66
2023-01-10T05:07:27.411Z,98265.50
2023-01-10T05:09:02.515Z,98262.69
2023-01-10T05:10:35.676Z,98264.53
2023-01-10T05:12:09.146Z,98269.66
2023-01-10T05:13:42.479Z,98258.28
2023-01-10T05:15:16.106Z,98247.84
2023-01-10T05:16:49.265Z,98270.38
2023-01-10T05:18:22.805Z,98256.41
2023-01-10T05:19:56.004Z,98268.72
2023-01-10T05:21:29.198Z,98258.22
2023-01-10T05:23:02.263Z,98258.22
2023-01-10T05:24:37.011Z,98276.47
2023-01-10T05:26:11.033Z,98277.50
2023-01-10T05:27:44.559Z,98280.94
2023-01-10T05:29:17.831Z,98268.66
2023-01-10T05:30:51.704Z,98275.53
2023-01-10T05:32:24.896Z,98279.75
2023-01-10T05:33:58.022Z,98289.19
2023-01-10T05:35:31.195Z,98273.47
2023-01-10T05:37:04.816Z,98275.19
2023-01-10T05:38:37.972Z,98270.88
2023-01-10T05:40:13.551Z,98286.38
2023-01-10T05:41:46.741Z,98286.38
2023-01-10T05:43:20.003Z,98299.28
2023-01-10T05:44:53.158Z,98296.13
2023-01-10T05:46:26.301Z,98298.66
2023-01-10T05:47:59.433Z,98280.47
2023-01-10T05:49:34.191Z,98285.63
2023-01-10T05:51:08.236Z,98282.91
2023-01-10T05:52:41.481Z,98288.91
2023-01-10T05:54:14.647Z,98281.97
2023-01-10T05:55:56.309Z,98286.16
2023-01-10T05:57:29.649Z,98290.38
2023-01-10T05:59:14.081Z,98299.06
2023-01-10T06:00:57.043Z,98289.41
2023-01-10T06:02:30.392Z,98291.16
2023-01-10T06:04:03.884Z,98286.66
2023-01-10T06:05:37.306Z,98292.66
2023-01-10T06:07:12.032Z,98291.75
2023-01-10T06:08:45.162Z,98286.59
2023-01-10T06:10:18.691Z,98276.03
2023-01-10T06:11:53.445Z,98279.44
2023-01-10T06:13:26.571Z,98265.56
2023-01-10T06:14:59.960Z,98272.50
2023-01-10T06:16:33.046Z,98256.81
2023-01-10T06:18:06.428Z,98277.66
2023-01-10T06:19:39.587Z,98277.72
2023-01-10T06:21:13.229Z,98289.88
2023-01-10T06:22:46.461Z,98280.41
2023-01-10T06:24:19.821Z,98282.28
2023-01-10T06:25:52.968Z,98278.16
2023-01-10T06:27:27.563Z,98283.44
2023-01-10T06:29:00.857Z,98279.91
2023-01-10T06:30:35.333Z,98282.38
2023-01-10T06:32:08.459Z,98290.03
2023-01-10T06:33:41.791Z,98296.78
2023-01-10T06:35:15.013Z,98295.88
2023-01-10T06:36:48.428Z,98310.56
2023-01-10T06:38:21.634Z,98319.06
2023-01-10T06:39:54.876Z,98312.81
2023-01-10T06:41:28.037Z,98311.88
2023-01-10T06:43:02.634Z,98304.81
2023-01-10T06:44:35.843Z,98302.94
2023-01-10T06:46:10.305Z,98295.03
2023-01-10T06:47:43.738Z,98290.66
2023-01-10T06:49:17.082Z,98296.78
2023-01-10T06:50:51.467Z,98299.50
2023-01-10T06:52:24.879Z,98299.41
2023-01-10T06:53:57.988Z,98299.34
2023-01-10T06:55:31.833Z,98306.22
2023-01-10T06:57:05.911Z,98301.66
2023-01-10T06:58:41.052Z,98309.41
2023-01-10T07:00:15.249Z,98308.38
2023-01-10T07:01:48.794Z,98314.47
2023-01-10T07:03:22.226Z,98310.06
2023-01-10T07:04:55.616Z,98319.72
2023-01-10T07:06:28.802Z,98311.69
2023-01-10T07:08:02.363Z,98310.72
2023-01-10T07:09:35.577Z,98309.19
2023-01-10T07:11:09.548Z,98292.63
2023-01-10T07:12:42.689Z,98300.34
2023-01-10T07:14:17.479Z,98303.09
2023-01-10T07:15:50.700Z,98319.53
2023-01-10T07:17:24.012Z,98316.84
2023-01-10T07:18:58.343Z,98318.34
2023-01-10T07:20:31.684Z,98318.22
2023-01-10T07:22:04.863Z,98306.72
2023-01-10T07:23:38.736Z,98310.00
2023-01-10T07:25:12.094Z,98316.84
2023-01-10T07:26:45.212Z,98308.06
2023-01-10T07:28:18.523Z,98318.63
2023-01-10T07:29:53.296Z,98315.94
2023-01-10T07:31:26.491Z,98310.56
2023-01-10T07:33:01.353Z,98302.75
2023-01-10T07:34:34.467Z,98316.56
2023-01-10T07:36:08.400Z,98315.81
2023-01-10T07:37:41.533Z,98324.34
2023-01-10T07:39:15.041Z,98313.81
2023-01-10T07:40:48.183Z,98322.72
2023-01-10T07:42:21.399Z,98319.09
2023-01-10T07:43:54.522Z,98329.50
2023-01-10T07:45:31.591Z,98328.50
2023-01-10T07:47:05.142Z,98311.16
2023-01-10T07:48:38.567Z,98314.47
2023-01-10T07:50:12.137Z,98311.72
2023-01-10T07:51:45.489Z,98314.41
2023-01-10T07:53:18.597Z,98319.66
2023-01-10T07:54:52.440Z,98316.25
2023-01-10T07:56:26.137Z,98316.56
2023-01-10T07:57:59.276Z,98323.63
2023-01-10T07:59:32.514Z,98329.00
2023-01-10T08:01:08.108Z,98318.72
2023-01-10T08:02:41.307Z,98312.03
2023-01-10T08:04:14.530Z,98305.88
2023-01-10T08:05:47.727Z,98311.94
2023-01-10T08:07:21.234Z,98291.84
2023-01-10T08:08:54.349Z,98302.22
2023-01-10T08:10:28.171Z,98289.03
2023-01-10T08:12:01.321Z,98290.75
2023-01-10T08:13:34.734Z,98282.00
2023-01-10T08:15:08.908Z,98287.94
2023-01-10T08:16:43.575Z,98285.25
2023-01-10T08:18:16.769Z,98286.91
2023-01-10T08:19:50.165Z,98285.09
2023-01-10T08:21:23.273Z,98282.41
2023-01-10T08:22:58.519Z,98277.84
2023-01-10T08:24:31.680Z,98271.00
2023-01-10T08:26:05.947Z,98272.72
2023-01-10T08:27:39.305Z,98262.44
2023-01-10T08:29:12.561Z,98272.81
2023-01-10T08:30:46.276Z,98259.78
2023-01-10T08:32:21.194Z,98263.03
2023-01-10T08:33:54.411Z,98256.84
2023-01-10T08:35:27.555Z,98258.47
2023-01-10T08:37:00.726Z,98251.50
2023-01-10T08:38:34.713Z,98253.97
2023-01-10T08:40:09.445Z,98258.28
2023-01-10T08:41:42.799Z,98249.44
2023-01-10T08:43:16.308Z,98245.91
2023-01-10T08:44:50.152Z,98250.19
2023-01-10T08:46:23.305Z,98244.84
2023-01-10T08:47:58.231Z,98249.03
2023-01-10T08:49:31.334Z,98253.19
2023-01-10T08:51:09.119Z,98253.81
2023-01-10T08:52:42.339Z,98246.69
2023-01-10T08:54:15.955Z,98247.69
2023-01-10T08:55:50.141Z,98239.63
2023-01-10T08:57:23.477Z,98246.56
2023-01-10T08:58:56.703Z,98239.44
2023-01-10T09:00:30.052Z,98235.72
2023-01-10T09:02:05.010Z,98230.25
2023-01-10T09:03:40.004Z,98238.84
2023-01-10T09:05:26.274Z,98228.22
2023-01-10T09:07:00.251Z,98242.78
2023-01-10T09:08:33.681Z,98231.34
2023-01-10T09:10:07.954Z,98222.69
2023-01-10T09:11:42.005Z,98226.88
2023-01-10T09:13:14.406Z,98223.25
2023-01-10T09:14:47.645Z,98230.97
2023-01-10T09:16:21.012Z,98227.31
2023-01-10T09:17:55.372Z,98223.78
2023-01-10T09:19:30.185Z,98219.59
2023-01-10T09:21:03.988Z,98223.88
2023-01-10T09:22:37.647Z,98213.50
2023-01-10T09:24:11.328Z,98214.41
2023-01-10T09:25:45.141Z,98215.13
2023-01-10T09:27:18.681Z,98213.28
2023-01-10T09:28:51.850Z,98197.47
2023-01-10T09:30:25.164Z,98184.31
2023-01-10T09:31:58.238Z,98183.34
2023-01-10T09:33:45.328Z,98178.00
2023-01-10T09:35:21.398Z,98178.72
2023-01-10T09:36:55.934Z,98185.59
2023-01-10T09:38:29.134Z,98177.69
2023-01-10T09:40:02.480Z,98175.97
2023-01-10T09:42:16.011Z,98168.91
2023-01-10T09:44:03.097Z,98159.16
2023-01-10T09:45:42.481Z,98158.19
2023-01-10T09:47:23.472Z,98149.41
2023-01-10T09:49:05.086Z,98149.41
2023-01-10T09:50:48.178Z,98149.91
2023-01-10T09:52:24.884Z,98135.03
2023-01-10T09:54:11.319Z,98133.09
2023-01-10T09:55:51.259Z,98137.50
2023-01-10T09:57:25.448Z,98135.66
2023-01-10T09:59:00.035Z,98138.28
2023-01-10T10:00:40.282Z,98139.81
2023-01-10T10:02:25.109Z,98138.03
2023-01-10T10:04:06.264Z,98134.53
2023-01-10T10:05:40.842Z,98141.41
2023-01-10T10:07:17.839Z,98131.19
2023-01-10T10:08:52.215Z,98129.22
2023-01-10T10:10:27.282Z,98127.41
2023-01-10T10:12:23.137Z,98122.16
2023-01-10T10:14:06.309Z,98125.34
2023-01-10T10:15:50.569Z,98116.50
2023-01-10T10:17:37.862Z,98112.06
2023-01-10T10:19:21.283Z,98110.16
2023-01-10T10:21:02.949Z,98102.94
2023-01-10T10:22:44.911Z,98095.94
2023-01-10T10:24:40.449Z,98104.69
2023-01-10T10:26:19.882Z,98099.44
2023-01-10T10:28:07.601Z,98078.59
2023-01-10T10:30:11.158Z,98091.44
2023-01-10T10:32:05.654Z,98084.56
2023-01-10T10:33:50.933Z,98089.59
2023-01-10T10:35:28.870Z,98090.34
2023-01-10T10:37:09.581Z,98098.13
2023-01-10T10:38:46.712Z,98085.81
2023-01-10T10:40:22.933Z,98091.59
2023-01-10T10:41:58.002Z,98099.47
2023-01-10T10:43:34.364Z,98082.03
2023-01-10T10:45:16.548Z,98092.41
2023-01-10T10:46:49.753Z,98094.09
2023-01-10T10:48:26.574Z,98098.38
2023-01-10T10:50:08.460Z,98087.75
2023-01-10T10:51:47.949Z,98091.03
2023-01-10T10:53:22.651Z,98098.03
2023-01-10T10:54:56.412Z,98097.81
2023-01-10T10:56:30.905Z,98103.88
2023-01-10T10:58:05.787Z,98097.56
2023-01-10T10:59:39.449Z,98105.44
2023-01-10T11:01:15.266Z,98092.44
2023-01-10T11:02:54.170Z,98097.88
2023-01-10T11:04:28.196Z,98093.47
2023-01-10T11:06:02.891Z,98091.66
2023-01-10T11:07:38.803Z,98082.00
2023-01-10T11:09:14.254Z,98088.94
2023-01-10T11:10:50.053Z,98088.00
2023-01-10T11:12:36.375Z,98089.69
2023-01-10T11:14:10.679Z,98084.44
2023-01-10T11:15:46.653Z,98079.19
2023-01-10T11:17:22.744Z,98077.59
2023-01-10T11:19:17.612Z,98073.19
2023-01-10T11:20:58.073Z,98085.38
2023-01-10T11:22:34.838Z,98076.16
2023-01-10T11:24:27.446Z,98064.41
2023-01-10T11:26:00.753Z,98060.00
2023-01-10T11:27:47.691Z,98051.28
2023-01-10T11:29:26.658Z,98040.56
2023-01-10T11:31:01.157Z,98035.44
2023-01-10T11:32:38.754Z,98042.41
2023-01-10T11:34:23.782Z,98043.34
2023-01-10T11:35:59.096Z,98045.03
2023-01-10T11:37:34.037Z,98041.47
2023-01-10T11:39:07.140Z,98040.72
2023-01-10T11:40:55.798Z,98046.66
2023-01-10T11:42:30.922Z,98048.19
2023-01-10T11:44:18.529Z,98047.13
2023-01-10T11:45:56.255Z,98050.56
2023-01-10T11:47:29.958Z,98047.00
2023-01-10T11:49:08.371Z,98040.06
2023-01-10T11:50:46.782Z,98052.66
2023-01-10T11:52:24.419Z,98050.16
2023-01-10T11:54:00.995Z,98051.75
2023-01-10T11:55:37.782Z,98043.09
2023-01-10T11:57:23.687Z,98042.97
2023-01-10T11:59:00.244Z,98040.38
2023-01-10T12:00:40.988Z,98045.50
2023-01-10T12:02:24.502Z,98049.78
2023-01-10T12:03:58.168Z,98046.34
2023-01-10T12:05:32.142Z,98048.06
2023-01-10T12:07:10.850Z,98056.00
2023-01-10T12:08:45.078Z,98043.22
2023-01-10T12:10:22.217Z,98060.69
2023-01-10T12:12:03.701Z,98065.16
2023-01-10T12:13:49.215Z,98064.47
2023-01-10T12:15:25.272Z,98053.13
2023-01-10T12:17:02.461Z,98062.91
2023-01-10T12:18:35.801Z,98076.09
2023-01-10T12:20:15.948Z,98071.72
2023-01-10T12:21:50.261Z,98064.06
2023-01-10T12:23:26.386Z,98068.56
2023-01-10T12:25:04.369Z,98046.84
2023-01-10T12:26:37.901Z,98026.31
2023-01-10T12:28:18.841Z,98038.63
2023-01-10T12:29:59.888Z,98036.09
2023-01-10T12:31:34.852Z,98030.84
2023-01-10T12:33:14.762Z,98041.19
2023-01-10T12:34:54.431Z,98047.19
2023-01-10T12:36:45.567Z,98043.88
2023-01-10T12:38:42.484Z,98051.53
2023-01-10T12:40:20.853Z,98060.50
2023-01-10T12:42:21.023Z,98056.00
2023-01-10T12:44:11.989Z,98068.31
2023-01-10T12:45:52.445Z,98069.31
2023-01-10T12:47:33.386Z,98073.22
2023-01-10T12:49:16.235Z,98068.34
2023-01-10T12:50:55.493Z,98073.13
2023-01-10T12:52:40.948Z,98082.88
2023-01-10T12:54:20.295Z,98079.47
2023-01-10T12:55:58.013Z,98070.94
2023-01-10T12:57:35.899Z,98072.84
2023-01-10T12:59:36.055Z,98079.81
2023-01-10T13:01:15.982Z,98090.41
2023-01-10T13:02:52.302Z,98089.69
2023-01-10T13:04:27.619Z,98102.88
2023-01-10T13:06:01.709Z,98109.81
2023-01-10T13:07:36.865Z,98105.56
2023-01-10T13:09:15.071Z,98101.16
2023-01-10T13:10:51.195Z,98106.41
2023-01-10T13:12:34.236Z,98104.84
2023-01-10T13:14:13.372Z,98097.84
2023-01-10T13:15:53.609Z,98103.09
2023-01-10T13:17:36.009Z,98108.34
2023-01-10T13:19:26.389Z,98098.00
2023-01-10T13:21:08.663Z,98088.38
2023-01-10T13:22:41.827Z,98084.28
2023-01-10T13:24:23.395Z,98084.22
2023-01-10T13:25:59.928Z,98078.94
2023-01-10T13:27:35.917Z,98087.84
2023-01-10T13:29:13.273Z,98088.75
2023-01-10T13:30:53.665Z,98089.03
2023-01-10T13:32:31.245Z,98096.06
2023-01-10T13:34:09.060Z,98092.72
2023-01-10T13:35:44.908Z,98098.09
2023-01-10T13:37:24.776Z,98095.72
2023-01-10T13:39:01.581Z,98102.88
2023-01-10T13:40:34.870Z,98105.66
2023-01-10T13:42:49.252Z,98106.94
2023-01-10T13:44:22.476Z,98114.13
2023-01-10T13:46:28.605Z,98111.53
2023-01-10T13:48:28.739Z,98114.31
2023-01-10T13:50:02.060Z,98123.22
2023-01-10T13:51:36.275Z,98127.75
2023-01-10T13:53:58.161Z,98125.03
2023-01-10T13:55:35.407Z,98120.00
2023-01-10T13:57:56.204Z,98115.50
2023-01-10T14:00:26.175Z,98129.81
2023-01-10T14:02:20.342Z,98125.53
2023-01-10T14:03:58.286Z,98137.66
2023-01-10T14:05:31.718Z,98144.50
2023-01-10T14:07:07.593Z,98141.84
2023-01-10T14:08:45.503Z,98140.28
2023-01-10T14:10:25.268Z,98129.19
2023-01-10T14:12:00.959Z,98121.84
2023-01-10T14:13:34.472Z,98129.69
2023-01-10T14:15:22.048Z,98128.09
2023-01-10T14:16:56.978Z,98123.63
2023-01-10T14:18:34.866Z,98143.38
2023-01-10T14:20:23.279Z,98152.06
2023-01-10T14:21:59.129Z,98164.25
2023-01-10T14:23:37.574Z,98157.41
2023-01-10T14:25:20.578Z,98184.47
2023-01-10T14:26:57.449Z,98192.47
2023-01-10T14:28:34.241Z,98189.16
2023-01-10T14:30:08.896Z,98186.56
2023-01-10T14:31:47.261Z,98194.56
2023-01-10T14:33:23.059Z,98204.31
2023-01-10T14:34:56.367Z,98213.91
2023-01-10T14:36:34.355Z,98220.81
2023-01-10T14:38:15.659Z,98206.97
2023-01-10T14:39:49.646Z,98200.88
2023-01-10T14:41:27.901Z,98188.13
2023-01-10T14:43:04.942Z,98182.13
2023-01-10T14:44:45.844Z,98193.53
2023-01-10T14:46:24.176Z,98185.00
2023-01-10T14:47:57.316Z,98181.47
2023-01-10T14:49:32.830Z,98173.50
2023-01-10T14:51:21.358Z,98174.25
2023-01-10T14:52:57.474Z,98182.97
2023-01-10T14:54:30.637Z,98182.88
2023-01-10T14:56:03.812Z,98181.78
2023-01-10T14:57:36.925Z,98185.06
2023-01-10T14:59:29.857Z,98180.69
2023-01-10T15:01:03.105Z,98184.00
2023-01-10T15:02:39.808Z,98178.88
2023-01-10T15:04:17.077Z,98166.59
2023-01-10T15:05:53.493Z,98166.78
2023-01-10T15:07:28.572Z,98164.09
2023-01-10T15:09:03.820Z,98173.72
2023-01-10T15:10:41.982Z,98185.72
2023-01-10T15:12:17.312Z,98179.47
2023-01-10T15:13:54.986Z,98169.81
2023-01-10T15:15:33.360Z,98161.84
2023-01-10T15:17:09.915Z,98156.66
2023-01-10T15:18:47.095Z,98164.56
2023-01-10T15:20:22.056Z,98169.72
2023-01-10T15:21:55.285Z,98172.34
2023-01-10T15:23:35.899Z,98174.09
2023-01-10T15:25:30.186Z,98162.88
2023-01-10T15:27:05.520Z,98180.06
2023-01-10T15:28:39.345Z,98178.34
2023-01-10T15:30:14.453Z,98188.75
2023-01-10T15:31:48.132Z,98181.56
2023-01-10T15:33:29.639Z,98188.56
2023-01-10T15:35:03.267Z,98191.88
2023-01-10T15:36:37.378Z,98200.63
2023-01-10T15:38:19.204Z,98222.34
2023-01-10T15:39:54.231Z,98224.91
2023-01-10T15:41:29.337Z,98234.53
2023-01-10T15:43:13.992Z,98249.50
2023-01-10T15:44:52.623Z,98261.69
2023-01-10T15:46:27.680Z,98264.16
2023-01-10T15:48:04.209Z,98259.69
2023-01-10T15:49:41.558Z,98271.81
2023-01-10T15:51:16.700Z,98271.91
2023-01-10T15:52:55.420Z,98275.22
2023-01-10T15:54:33.849Z,98263.81
2023-01-10T15:56:13.910Z,98259.44
2023-01-10T15:57:53.302Z,98256.88
2023-01-10T15:59:32.844Z,98240.44
2023-01-10T16:01:06.687Z,98238.66
2023-01-10T16:02:40.754Z,98235.22
2023-01-10T16:04:15.619Z,98248.91
2023-01-10T16:05:54.805Z,98257.47
2023-01-10T16:07:32.124Z,98266.16
2023-01-10T16:09:08.628Z,98267.75
2023-01-10T16:10:42.115Z,98270.25
2023-01-10T16:12:43.715Z,98272.81
2023-01-10T16:14:20.184Z,98263.16
2023-01-10T16:15:55.158Z,98260.69
2023-01-10T16:17:28.475Z,98245.19
2023-01-10T16:19:02.914Z,98249.38
2023-01-10T16:20:39.092Z,98271.06
2023-01-10T16:22:19.659Z,98275.66
2023-01-10T16:23:54.034Z,98276.81
2023-01-10T16:25:33.781Z,98275.31
2023-01-10T16:27:07.770Z,98266.66
2023-01-10T16:28:45.968Z,98271.91
2023-01-10T16:30:25.839Z,98271.81
2023-01-10T16:31:59.615Z,98257.88
2023-01-10T16:33:33.039Z,98262.28
2023-01-10T16:35:07.046Z,98269.19
2023-01-10T16:36:44.357Z,98274.50
2023-01-10T16:38:18.407Z,98282.47
2023-01-10T16:39:51.550Z,98286.84
2023-01-10T16:41:42.791Z,98299.09
2023-01-10T16:43:25.799Z,98287.72
2023-01-10T16:44:58.923Z,98286.78
2023-01-10T16:46:33.717Z,98291.94
2023-01-10T16:48:08.151Z,98279.03
2023-01-10T16:49:45.524Z,98282.66
2023-01-10T16:51:21.189Z,98295.84
2023-01-10T16:52:54.482Z,98301.81
2023-01-10T16:54:28.937Z,98300.00
2023-01-10T16:56:02.513Z,98290.38
2023-01-10T16:57:37.075Z,98286.00
2023-01-10T16:59:10.561Z,98286.00
2023-01-10T17:00:45.828Z,98283.44
2023-01-10T17:02:21.952Z,98280.94
2023-01-10T17:03:55.800Z,98280.94
2023-01-10T17:05:30.868Z,98289.72
2023-01-10T17:07:04.330Z,98298.69
2023-01-10T17:08:38.032Z,98309.25
2023-01-10T17:10:14.164Z,98316.19
2023-01-10T17:11:56.987Z,98316.19
2023-01-10T17:13:33.694Z,98321.34
2023-01-10T17:15:09.360Z,98314.31
2023-01-10T17:16:42.993Z,98327.41
2023-01-10T17:18:17.955Z,98326.41
2023-01-10T17:19:51.744Z,98329.91
2023-01-10T17:21:25.229Z,98336.88
2023-01-10T17:22:59.180Z,98346.47
2023-01-10T17:24:32.922Z,98351.81
2023-01-10T17:26:07.362Z,98347.72
2023-01-10T17:27:43.289Z,98365.25
2023-01-10T17:29:16.652Z,98378.41
2023-01-10T17:30:50.496Z,98361.81
2023-01-10T17:32:23.962Z,98359.41
2023-01-10T17:33:58.835Z,98358.41
2023-01-10T17:35:32.783Z,98356.56
2023-01-10T17:37:06.802Z,98365.34
2023-01-10T17:38:41.153Z,98363.63
2023-01-10T17:40:14.646Z,98360.03
2023-01-10T17:41:47.870Z,98363.56
2023-01-10T17:43:22.040Z,98364.56
2023-01-10T17:44:55.456Z,98360.94
2023-01-10T17:46:28.833Z,98380.06
2023-01-10T17:48:02.499Z,98379.06
2023-01-10T17:49:37.544Z,98388.66
2023-01-10T17:51:13.561Z,98394.78
2023-01-10T17:52:49.913Z,98383.47
2023-01-10T17:54:23.444Z,98393.09
2023-01-10T17:55:58.013Z,98391.38
2023-01-10T17:57:31.658Z,98394.03
2023-01-10T17:59:07.765Z,98386.22
2023-01-10T18:00:41.305Z,98385.34
2023-01-10T18:02:18.237Z,98386.19
2023-01-10T18:03:52.980Z,98397.59
2023-01-10T18:05:27.844Z,98408.03
2023-01-10T18:07:01.386Z,98409.84
2023-01-10T18:08:34.839Z,98415.06
2023-01-10T18:10:12.994Z,98408.88
2023-01-10T18:11:46.303Z,98403.66
2023-01-10T18:13:24.408Z,98404.47
2023-01-10T18:14:57.679Z,98407.13
2023-01-10T18:16:31.483Z,98414.94
2023-01-10T18:18:04.889Z,98421.91
2023-01-10T18:19:39.363Z,98414.13
2023-01-10T18:21:19.719Z,98408.28
2023-01-10T18:23:11.577Z,98415.16
2023-01-10T18:24:47.397Z,98417.75
2023-01-10T18:26:21.101Z,98409.16
2023-01-10T18:27:56.636Z,98406.53
2023-01-10T18:29:30.256Z,98408.16
2023-01-10T18:31:04.718Z,98410.78
2023-01-10T18:32:38.392Z,98406.41
2023-01-10T18:34:11.705Z,98390.72
2023-01-10T18:35:47.342Z,98391.47
2023-01-10T18:37:22.572Z,98399.31
2023-01-10T18:38:56.389Z,98412.41
2023-01-10T18:40:29.853Z,98422.97
2023-01-10T18:42:04.043Z,98445.75
2023-01-10T18:43:37.589Z,98450.25
2023-01-10T18:45:11.750Z,98455.31
2023-01-10T18:46:44.936Z,98443.84
2023-01-10T18:48:20.482Z,98442.97
2023-01-10T18:49:53.999Z,98456.78
2023-01-10T18:51:27.312Z,98461.13
2023-01-10T18:53:02.005Z,98462.91
2023-01-10T18:54:35.949Z,98459.41
2023-01-10T18:56:10.117Z,98466.41
2023-01-10T18:57:43.384Z,98464.66
2023-01-10T18:59:18.184Z,98471.59
2023-01-10T19:00:53.071Z,98473.31